createdAt,value
2022-11-26T00:01:25.135Z,34.55
2022-11-26T00:03:56.996Z,33.85
2022-11-26T00:06:35.118Z,36.28
2022-11-26T00:09:05.986Z,36.28
2022-11-26T00:11:35.248Z,32.97
2022-11-26T00:14:04.761Z,31.52
2022-11-26T00:16:34.512Z,29.17
2022-11-26T00:19:05.589Z,28.42
2022-11-26T00:21:37.378Z,29.38
2022-11-26T00:24:08.178Z,27.50
2022-11-26T00:26:37.550Z,27.52
2022-11-26T00:29:07.335Z,27.10
2022-11-26T00:31:36.861Z,27.55
2022-11-26T00:34:07.724Z,28.73
2022-11-26T00:36:37.299Z,27.58
2022-11-26T00:39:10.938Z,31.98
2022-11-26T00:41:41.161Z,39.58
2022-11-26T00:44:19.149Z,34.33
2022-11-26T00:46:48.808Z,30.98
2022-11-26T00:49:20.867Z,28.88
2022-11-26T00:51:50.229Z,27.02
2022-11-26T00:54:20.733Z,27.65
2022-11-26T00:56:51.483Z,25.60
2022-11-26T00:59:23.386Z,25.35
2022-11-26T01:01:52.643Z,25.30
2022-11-26T01:04:23.613Z,26.70
2022-11-26T01:06:52.721Z,24.98
2022-11-26T01:09:23.215Z,24.48
2022-11-26T01:11:54.468Z,47.67
2022-11-26T01:14:25.104Z,51.05
2022-11-26T01:16:57.257Z,49.60
2022-11-26T01:19:28.446Z,47.38
2022-11-26T01:21:57.530Z,35.75
2022-11-26T01:24:27.001Z,28.38
2022-11-26T01:26:56.371Z,28.45
2022-11-26T01:29:25.710Z,27.13
2022-11-26T01:31:54.843Z,26.80
2022-11-26T01:34:24.658Z,23.88
2022-11-26T01:36:55.155Z,26.17
2022-11-26T01:39:25.421Z,24.13
2022-11-26T01:42:00.963Z,25.55
2022-11-26T01:44:33.077Z,24.48
2022-11-26T01:47:03.103Z,24.33
2022-11-26T01:49:34.663Z,26.63
2022-11-26T01:52:12.345Z,25.70
2022-11-26T01:54:44.489Z,26.38
2022-11-26T01:57:18.733Z,25.17
2022-11-26T01:59:54.046Z,25.73
2022-11-26T02:02:26.438Z,27.88
2022-11-26T02:05:02.448Z,26.17
2022-11-26T02:07:33.085Z,27.38
2022-11-26T02:10:02.542Z,25.58
2022-11-26T02:12:31.834Z,26.65
2022-11-26T02:15:01.433Z,27.25
2022-11-26T02:17:37.770Z,27.15
2022-11-26T02:20:33.154Z,26.05
2022-11-26T02:23:36.004Z,26.30
2022-11-26T02:26:32.074Z,25.42
2022-11-26T02:29:11.400Z,25.33
2022-11-26T02:31:47.672Z,26.02
2022-11-26T02:34:22.720Z,24.88
2022-11-26T02:36:55.849Z,26.67
2022-11-26T02:39:26.818Z,27.15
2022-11-26T02:41:58.113Z,25.67
2022-11-26T02:44:30.813Z,23.77
2022-11-26T02:47:06.239Z,24.63
2022-11-26T02:49:37.235Z,31.73
2022-11-26T02:52:09.073Z,36.65
2022-11-26T02:54:39.461Z,26.15
2022-11-26T02:57:13.114Z,26.35
2022-11-26T02:59:43.620Z,26.70
2022-11-26T03:02:21.544Z,27.30
2022-11-26T03:04:54.307Z,26.38
2022-11-26T03:07:24.039Z,25.55
2022-11-26T03:09:56.613Z,24.40
2022-11-26T03:12:26.832Z,25.10
2022-11-26T03:14:56.110Z,37.85
2022-11-26T03:17:26.850Z,38.10
2022-11-26T03:19:55.930Z,33.42
2022-11-26T03:22:25.329Z,27.63
2022-11-26T03:24:54.708Z,24.83
2022-11-26T03:27:24.040Z,24.25
2022-11-26T03:29:53.043Z,22.55
2022-11-26T03:33:47.394Z,24.67
2022-11-26T03:36:17.808Z,23.00
2022-11-26T03:38:47.238Z,23.73
2022-11-26T03:41:16.377Z,23.35
2022-11-26T03:43:45.751Z,22.80
2022-11-26T03:46:14.875Z,23.33
2022-11-26T03:48:44.242Z,22.40
2022-11-26T03:51:13.268Z,21.50
2022-11-26T03:53:43.977Z,23.33
2022-11-26T03:56:12.974Z,24.23
2022-11-26T03:58:42.346Z,24.05
2022-11-26T04:01:13.266Z,25.20
2022-11-26T04:03:43.197Z,23.00
2022-11-26T04:06:12.302Z,22.55
2022-11-26T04:08:43.042Z,24.55
2022-11-26T04:11:12.116Z,24.60
2022-11-26T04:13:41.441Z,23.33
2022-11-26T04:16:11.084Z,23.02
2022-11-26T04:18:40.454Z,24.15
2022-11-26T04:21:09.981Z,24.20
2022-11-26T04:23:39.318Z,22.83
2022-11-26T04:26:09.824Z,23.88
2022-11-26T04:28:39.312Z,22.65
2022-11-26T04:31:08.696Z,23.80
2022-11-26T04:33:38.102Z,23.80
2022-11-26T04:36:07.799Z,22.45
2022-11-26T04:38:38.039Z,24.58
2022-11-26T04:41:08.622Z,24.33
2022-11-26T04:43:37.992Z,25.73
2022-11-26T04:46:07.417Z,27.77
2022-11-26T04:48:36.820Z,25.83
2022-11-26T04:51:06.040Z,26.30
2022-11-26T04:53:35.587Z,28.52
2022-11-26T04:56:04.813Z,25.85
2022-11-26T04:58:35.606Z,28.17
2022-11-26T05:01:05.034Z,25.35
2022-11-26T05:03:34.415Z,25.02
2022-11-26T05:06:03.530Z,28.23
2022-11-26T05:08:33.055Z,26.65
2022-11-26T05:11:03.218Z,24.77
2022-11-26T05:13:34.313Z,24.55
2022-11-26T05:16:03.353Z,23.50
2022-11-26T05:18:32.664Z,24.92
2022-11-26T05:21:01.769Z,23.17
2022-11-26T05:23:31.130Z,24.48
2022-11-26T05:26:00.352Z,23.27
2022-11-26T05:28:29.729Z,22.52
2022-11-26T05:31:04.702Z,20.75
2022-11-26T05:33:34.256Z,24.70
2022-11-26T05:36:03.405Z,26.30
2022-11-26T05:38:32.781Z,24.05
2022-11-26T05:41:01.810Z,22.13
2022-11-26T05:43:31.232Z,25.17
2022-11-26T05:46:07.151Z,24.63
2022-11-26T05:48:36.684Z,22.50
2022-11-26T05:51:05.994Z,24.45
2022-11-26T05:53:35.424Z,25.25
2022-11-26T05:56:04.764Z,22.95
2022-11-26T05:58:34.175Z,24.45
2022-11-26T06:01:09.658Z,23.05
2022-11-26T06:06:08.818Z,23.13
2022-11-26T06:08:38.264Z,21.15
2022-11-26T06:11:07.654Z,21.65
2022-11-26T06:13:37.033Z,22.60
2022-11-26T06:16:06.504Z,24.27
2022-11-26T06:18:38.823Z,23.38
2022-11-26T06:21:09.219Z,23.52
2022-11-26T06:23:38.840Z,21.58
2022-11-26T06:26:09.982Z,22.90
2022-11-26T06:28:40.235Z,22.63
2022-11-26T06:31:11.083Z,23.15
2022-11-26T06:33:41.874Z,25.08
2022-11-26T06:36:11.675Z,24.08
2022-11-26T06:38:40.970Z,24.33
2022-11-26T06:41:10.487Z,22.30
2022-11-26T06:43:40.113Z,22.48
2022-11-26T06:46:11.299Z,22.85
2022-11-26T06:48:42.407Z,22.67
2022-11-26T06:51:14.054Z,22.55
2022-11-26T06:53:43.745Z,23.67
2022-11-26T06:56:18.342Z,27.02
2022-11-26T06:58:50.246Z,26.65
2022-11-26T07:01:22.567Z,25.75
2022-11-26T07:03:53.882Z,26.02
2022-11-26T07:06:25.270Z,25.67
2022-11-26T07:08:56.340Z,24.88
2022-11-26T07:11:26.636Z,25.55
2022-11-26T07:13:56.054Z,26.95
2022-11-26T07:16:25.343Z,29.35
2022-11-26T07:19:02.692Z,26.85
2022-11-26T07:21:32.811Z,28.10
2022-11-26T07:24:02.168Z,27.73
2022-11-26T07:26:31.332Z,27.45
2022-11-26T07:29:00.795Z,26.33
2022-11-26T07:31:29.905Z,25.95
2022-11-26T07:34:00.868Z,26.52
2022-11-26T07:36:31.861Z,25.05
2022-11-26T07:39:03.033Z,25.38
2022-11-26T07:41:32.550Z,25.52
2022-11-26T07:44:01.798Z,26.33
2022-11-26T07:46:31.024Z,25.77
2022-11-26T07:49:01.741Z,30.00
2022-11-26T07:51:33.269Z,28.73
2022-11-26T07:54:06.900Z,28.48
2022-11-26T07:56:36.723Z,31.70
2022-11-26T07:59:06.422Z,31.73
2022-11-26T08:01:35.543Z,28.27
2022-11-26T08:04:07.712Z,29.00
2022-11-26T08:06:36.800Z,26.33
2022-11-26T08:09:07.607Z,27.63
2022-11-26T08:11:36.795Z,28.02
2022-11-26T08:14:07.720Z,23.95
2022-11-26T08:16:37.048Z,23.50
2022-11-26T08:19:09.940Z,23.75
2022-11-26T08:21:39.640Z,23.75
2022-11-26T08:24:13.773Z,24.58
2022-11-26T08:26:44.458Z,24.70
2022-11-26T08:29:14.430Z,26.02
2022-11-26T08:31:46.372Z,27.63
2022-11-26T08:34:18.618Z,26.73
2022-11-26T08:36:48.032Z,27.63
2022-11-26T08:39:19.018Z,29.25
2022-11-26T08:41:52.160Z,29.77
2022-11-26T08:44:22.739Z,26.52
2022-11-26T08:46:51.907Z,27.13
2022-11-26T08:49:22.574Z,27.45
2022-11-26T08:51:51.636Z,27.25
2022-11-26T08:54:21.064Z,26.70
2022-11-26T08:56:50.405Z,24.88
2022-11-26T08:59:22.971Z,24.20
2022-11-26T09:01:52.373Z,23.45
2022-11-26T09:04:23.284Z,26.77
2022-11-26T09:06:52.316Z,25.45
2022-11-26T09:09:21.694Z,26.05
2022-11-26T09:11:54.042Z,26.23
2022-11-26T09:14:25.860Z,30.95
2022-11-26T09:16:56.779Z,29.40
2022-11-26T09:19:28.575Z,26.25
2022-11-26T09:21:57.835Z,27.30
2022-11-26T09:24:27.617Z,28.13
2022-11-26T09:26:56.709Z,27.23
2022-11-26T09:29:26.194Z,31.52
2022-11-26T09:32:22.531Z,32.55
2022-11-26T09:34:46.160Z,29.98
2022-11-26T09:37:15.316Z,30.13
2022-11-26T09:39:44.632Z,27.55
2022-11-26T09:42:24.505Z,28.40
2022-11-26T09:45:09.974Z,27.85
2022-11-26T09:47:41.887Z,27.97
2022-11-26T09:50:26.912Z,27.95
2022-11-26T09:53:00.503Z,22.90
2022-11-26T09:55:33.013Z,21.50
2022-11-26T09:58:12.029Z,22.90
2022-11-26T10:00:44.144Z,23.38
2022-11-26T10:03:16.823Z,21.17
2022-11-26T10:05:54.614Z,23.13
2022-11-26T10:08:58.034Z,21.50
2022-11-26T10:11:35.238Z,20.40
2022-11-26T10:14:23.799Z,20.48
2022-11-26T10:17:10.465Z,20.40
2022-11-26T10:19:53.322Z,21.52
2022-11-26T10:22:30.020Z,21.05
2022-11-26T10:25:00.764Z,24.08
2022-11-26T10:27:35.087Z,24.63
2022-11-26T10:30:17.949Z,23.80
2022-11-26T10:32:49.482Z,23.17
2022-11-26T10:35:20.448Z,23.55
2022-11-26T10:37:51.925Z,24.10
2022-11-26T10:40:25.634Z,25.15
2022-11-26T10:43:04.317Z,23.05
2022-11-26T10:45:40.334Z,23.58
2022-11-26T10:48:24.220Z,22.23
2022-11-26T10:51:02.205Z,24.02
2022-11-26T10:53:48.256Z,21.70
2022-11-26T10:56:21.089Z,21.73
2022-11-26T10:58:53.406Z,20.25
2022-11-26T11:01:22.839Z,19.52
2022-11-26T11:04:10.265Z,21.38
2022-11-26T11:06:42.618Z,19.75
2022-11-26T11:09:26.722Z,21.02
2022-11-26T11:12:19.081Z,17.88
2022-11-26T11:14:49.360Z,19.00
2022-11-26T11:17:32.905Z,17.77
2022-11-26T11:20:23.408Z,18.80
2022-11-26T11:23:03.736Z,18.15
2022-11-26T11:25:36.296Z,18.38
2022-11-26T11:28:12.384Z,17.30
2022-11-26T11:30:43.461Z,20.27
2022-11-26T11:33:20.642Z,19.77
2022-11-26T11:36:08.482Z,17.13
2022-11-26T11:38:50.302Z,18.33
2022-11-26T11:41:26.605Z,17.15
2022-11-26T11:44:01.292Z,17.20
2022-11-26T11:46:53.913Z,17.10
2022-11-26T11:49:33.047Z,18.55
2022-11-26T11:52:21.005Z,17.77
2022-11-26T11:55:00.199Z,16.13
2022-11-26T11:57:58.093Z,17.42
2022-11-26T12:00:40.469Z,17.27
2022-11-26T12:03:32.426Z,16.88
2022-11-26T12:06:13.871Z,16.63
2022-11-26T12:08:55.225Z,16.35
2022-11-26T12:11:35.416Z,16.13
2022-11-26T12:14:24.695Z,16.92
2022-11-26T12:17:00.453Z,15.40
2022-11-26T12:19:39.563Z,17.13
2022-11-26T12:22:15.832Z,15.75
2022-11-26T12:24:49.243Z,20.08
2022-11-26T12:27:33.196Z,17.50
2022-11-26T12:30:06.318Z,17.30
2022-11-26T12:32:39.652Z,20.98
2022-11-26T12:35:16.039Z,16.75
2022-11-26T12:37:46.785Z,17.85
2022-11-26T12:40:29.707Z,17.40
2022-11-26T12:43:03.488Z,18.33
2022-11-26T12:45:49.248Z,16.65
2022-11-26T12:48:40.699Z,19.25
2022-11-26T12:51:22.899Z,16.92
2022-11-26T12:54:01.237Z,17.77
2022-11-26T12:56:36.852Z,17.42
2022-11-26T12:59:11.553Z,19.67
2022-11-26T13:01:42.330Z,17.92
2022-11-26T13:07:17.517Z,17.98
2022-11-26T13:10:00.305Z,18.17
2022-11-26T13:12:41.337Z,22.40
2022-11-26T13:15:22.978Z,26.10
2022-11-26T13:17:54.306Z,22.73
2022-11-26T13:20:38.232Z,20.25
2022-11-26T13:23:25.529Z,24.45
2022-11-26T13:26:24.764Z,25.42
2022-11-26T13:29:10.409Z,19.23
2022-11-26T13:31:55.213Z,18.45
2022-11-26T13:34:37.276Z,17.70
2022-11-26T13:37:25.345Z,16.48
2022-11-26T13:40:30.120Z,18.38
2022-11-26T13:43:29.058Z,18.20
2022-11-26T13:46:09.360Z,19.85
2022-11-26T13:48:49.181Z,18.90
2022-11-26T13:51:28.114Z,20.10
2022-11-26T13:54:01.612Z,20.27
2022-11-26T13:56:32.913Z,20.02
2022-11-26T13:59:05.562Z,18.75
2022-11-26T14:01:40.280Z,18.42
2022-11-26T14:04:11.646Z,18.90
2022-11-26T14:07:21.178Z,18.48
2022-11-26T14:09:55.686Z,18.52
2022-11-26T14:12:46.016Z,19.03
2022-11-26T14:15:48.417Z,17.85
2022-11-26T14:18:19.376Z,18.02
2022-11-26T14:21:13.186Z,19.65
2022-11-26T14:23:48.803Z,19.90
2022-11-26T14:26:23.331Z,19.10
2022-11-26T14:28:53.694Z,19.13
2022-11-26T14:31:25.048Z,18.23
2022-11-26T14:33:57.948Z,17.48
2022-11-26T14:36:28.621Z,26.23
2022-11-26T14:39:12.967Z,31.65
2022-11-26T14:42:01.954Z,29.35
2022-11-26T14:44:35.274Z,29.02
2022-11-26T14:47:14.975Z,28.45
2022-11-26T14:49:48.585Z,28.45
2022-11-26T14:52:21.477Z,30.38
2022-11-26T14:54:54.848Z,27.40
2022-11-26T14:57:27.575Z,29.42
2022-11-26T14:59:59.323Z,35.72
2022-11-26T15:02:30.889Z,30.63
2022-11-26T15:05:02.316Z,27.98
2022-11-26T15:07:32.462Z,29.75
2022-11-26T15:10:05.889Z,40.20
2022-11-26T15:12:37.151Z,36.25
2022-11-26T15:15:07.557Z,46.95
2022-11-26T15:17:37.302Z,44.08
2022-11-26T15:20:14.245Z,43.28
2022-11-26T15:22:49.313Z,42.45
2022-11-26T15:25:23.109Z,76.13
2022-11-26T15:27:59.065Z,153.63
2022-11-26T15:30:30.559Z,50.83
2022-11-26T15:33:02.101Z,60.97
2022-11-26T15:35:33.337Z,34.90
2022-11-26T15:38:03.172Z,31.45
2022-11-26T15:40:46.862Z,28.85
2022-11-26T15:43:23.936Z,26.42
2022-11-26T15:45:55.872Z,26.85
2022-11-26T15:48:50.433Z,27.55
2022-11-26T15:51:30.728Z,24.67
2022-11-26T15:54:04.423Z,24.10
2022-11-26T15:56:38.924Z,24.45
2022-11-26T15:59:15.434Z,25.45
2022-11-26T16:01:47.541Z,25.67
2022-11-26T16:04:40.299Z,26.55
2022-11-26T16:07:11.123Z,24.48
2022-11-26T16:09:40.603Z,26.20
2022-11-26T16:12:28.048Z,23.10
2022-11-26T16:15:14.766Z,23.88
2022-11-26T16:17:45.641Z,23.77
2022-11-26T16:20:19.994Z,24.73
2022-11-26T16:22:52.446Z,25.13
2022-11-26T16:25:24.026Z,23.63
2022-11-26T16:28:16.979Z,24.27
2022-11-26T16:30:46.667Z,23.13
2022-11-26T16:33:16.079Z,24.27
2022-11-26T16:35:46.557Z,22.42
2022-11-26T16:38:24.211Z,22.20
2022-11-26T16:40:54.146Z,22.80
2022-11-26T16:43:25.007Z,22.15
2022-11-26T16:45:56.496Z,21.73
2022-11-26T16:48:27.669Z,21.60
2022-11-26T16:50:57.661Z,23.23
2022-11-26T16:53:27.385Z,22.42
2022-11-26T16:55:56.546Z,26.10
2022-11-26T16:58:31.108Z,26.05
2022-11-26T17:01:00.313Z,31.20
2022-11-26T17:03:33.279Z,38.75
2022-11-26T17:06:05.157Z,38.35
2022-11-26T17:08:36.301Z,32.40
2022-11-26T17:11:05.704Z,34.38
2022-11-26T17:13:36.545Z,31.98
2022-11-26T17:16:06.849Z,33.88
2022-11-26T17:18:36.319Z,39.42
2022-11-26T17:21:05.428Z,44.60
2022-11-26T17:23:34.801Z,48.25
2022-11-26T17:26:04.571Z,41.60
2022-11-26T17:28:35.283Z,39.17
2022-11-26T17:31:04.672Z,34.60
2022-11-26T17:33:34.172Z,34.00
2022-11-26T17:36:03.655Z,35.92
2022-11-26T17:38:33.652Z,43.60
2022-11-26T17:41:02.812Z,33.92
2022-11-26T17:43:32.217Z,37.08
2022-11-26T17:46:03.982Z,36.67
2022-11-26T17:48:33.586Z,32.33
2022-11-26T17:51:03.830Z,34.47
2022-11-26T17:53:33.135Z,31.83
2022-11-26T17:56:03.550Z,32.03
2022-11-26T17:58:33.251Z,31.42
2022-11-26T18:01:03.867Z,32.42
2022-11-26T18:03:33.293Z,31.75
2022-11-26T18:06:02.620Z,32.33
2022-11-26T18:08:33.347Z,29.60
2022-11-26T18:11:02.819Z,34.22
2022-11-26T18:13:32.085Z,32.55
2022-11-26T18:16:03.213Z,32.58
2022-11-26T18:18:32.547Z,34.58
2022-11-26T18:21:01.561Z,34.63
2022-11-26T18:23:30.949Z,32.65
2022-11-26T18:26:02.019Z,33.45
2022-11-26T18:28:31.376Z,39.92
2022-11-26T18:31:00.578Z,36.92
2022-11-26T18:33:31.574Z,41.13
2022-11-26T18:36:00.596Z,36.72
2022-11-26T18:38:31.483Z,41.15
2022-11-26T18:41:03.549Z,39.42
2022-11-26T18:43:33.438Z,37.95
2022-11-26T18:46:05.235Z,37.35
2022-11-26T18:48:37.492Z,36.00
2022-11-26T18:51:07.248Z,34.75
2022-11-26T18:53:37.237Z,37.58
2022-11-26T18:56:09.258Z,38.20
2022-11-26T18:58:39.121Z,41.22
2022-11-26T19:01:14.691Z,40.55
2022-11-26T19:06:17.776Z,40.88
2022-11-26T19:08:48.512Z,35.05
2022-11-26T19:11:20.603Z,33.17
2022-11-26T19:13:50.773Z,33.90
2022-11-26T19:16:21.308Z,33.80
2022-11-26T19:18:52.423Z,36.55
2022-11-26T19:21:23.276Z,31.23
2022-11-26T19:23:53.382Z,34.92
2022-11-26T19:26:23.445Z,35.65
2022-11-26T19:28:53.374Z,34.00
2022-11-26T19:31:26.004Z,34.85
2022-11-26T19:33:58.287Z,39.00
2022-11-26T19:36:27.852Z,36.05
2022-11-26T19:38:59.248Z,35.22
2022-11-26T19:41:29.632Z,40.72
2022-11-26T19:44:00.310Z,59.88
2022-11-26T19:46:32.307Z,70.47
2022-11-26T19:49:03.328Z,72.15
2022-11-26T19:51:32.889Z,76.25
2022-11-26T19:54:02.296Z,68.35
2022-11-26T19:56:32.597Z,71.70
2022-11-26T19:59:02.789Z,76.28
2022-11-26T20:01:34.166Z,84.40
2022-11-26T20:04:08.544Z,81.47
2022-11-26T20:06:38.102Z,93.53
2022-11-26T20:09:08.877Z,87.35
2022-11-26T20:11:39.633Z,87.15
2022-11-26T20:14:10.792Z,91.85
2022-11-26T20:16:43.487Z,86.18
2022-11-26T20:19:14.872Z,83.07
2022-11-26T20:21:44.035Z,85.63
2022-11-26T20:24:15.824Z,80.30
2022-11-26T20:26:48.612Z,87.22
2022-11-26T20:29:22.053Z,82.55
2022-11-26T20:31:52.914Z,85.63
2022-11-26T20:34:26.163Z,81.53
2022-11-26T20:36:55.257Z,75.88
2022-11-26T20:39:25.791Z,79.18
2022-11-26T20:41:54.909Z,78.88
2022-11-26T20:44:26.716Z,82.38
2022-11-26T20:46:57.195Z,81.15
2022-11-26T20:49:33.439Z,82.95
2022-11-26T20:52:03.601Z,81.95
2022-11-26T20:54:33.279Z,75.55
2022-11-26T20:57:02.652Z,74.88
2022-11-26T20:59:32.015Z,73.57
2022-11-26T21:02:01.106Z,77.10
2022-11-26T21:04:31.900Z,75.93
2022-11-26T21:07:01.007Z,72.10
2022-11-26T21:09:30.431Z,71.85
2022-11-26T21:11:59.719Z,71.78
2022-11-26T21:14:29.927Z,72.43
2022-11-26T21:16:59.212Z,72.40
2022-11-26T21:19:30.361Z,70.22
2022-11-26T21:21:59.376Z,65.28
2022-11-26T21:24:28.789Z,61.97
2022-11-26T21:26:57.978Z,64.93
2022-11-26T21:29:27.221Z,61.45
2022-11-26T21:31:56.476Z,62.30
2022-11-26T21:34:26.150Z,59.47
2022-11-26T21:36:56.621Z,41.92
2022-11-26T21:39:25.966Z,57.30
2022-11-26T21:41:54.994Z,50.85
2022-11-26T21:44:24.407Z,55.10
2022-11-26T21:46:53.524Z,55.97
2022-11-26T21:49:23.334Z,57.72
2022-11-26T21:51:52.344Z,36.28
2022-11-26T21:54:23.236Z,51.03
2022-11-26T21:56:52.497Z,47.08
2022-11-26T21:59:21.869Z,41.22
2022-11-26T22:01:51.535Z,39.15
2022-11-26T22:04:21.917Z,36.08
2022-11-26T22:06:51.328Z,33.90
2022-11-26T22:09:22.171Z,30.63
2022-11-26T22:11:51.289Z,32.63
2022-11-26T22:14:20.718Z,31.08
2022-11-26T22:16:52.490Z,31.92
2022-11-26T22:19:21.885Z,27.17
2022-11-26T22:21:51.053Z,26.48
2022-11-26T22:24:22.817Z,27.55
2022-11-26T22:26:52.539Z,25.60
2022-11-26T22:29:22.455Z,26.83
2022-11-26T22:31:51.597Z,25.48
2022-11-26T22:34:22.331Z,28.77
2022-11-26T22:36:51.510Z,25.92
2022-11-26T22:39:22.586Z,26.08
2022-11-26T22:41:51.858Z,25.30
2022-11-26T22:44:21.226Z,25.52
2022-11-26T22:46:50.328Z,21.48
2022-11-26T22:49:20.109Z,24.55
2022-11-26T22:51:49.201Z,24.00
2022-11-26T22:54:19.345Z,21.63
2022-11-26T22:56:49.888Z,19.30
2022-11-26T22:59:19.478Z,20.33
2022-11-26T23:01:48.560Z,23.15
2022-11-26T23:04:18.254Z,22.73
2022-11-26T23:06:47.385Z,26.15
2022-11-26T23:09:17.141Z,22.48
2022-11-26T23:11:46.529Z,19.48
2022-11-26T23:14:17.245Z,18.45
2022-11-26T23:16:46.431Z,18.30
2022-11-26T23:19:16.772Z,19.27
2022-11-26T23:21:46.971Z,18.10
2022-11-26T23:24:17.096Z,17.00
2022-11-26T23:26:46.469Z,17.13
2022-11-26T23:29:17.315Z,18.25
2022-11-26T23:31:46.667Z,17.73
2022-11-26T23:34:16.500Z,16.33
2022-11-26T23:36:45.583Z,16.27
2022-11-26T23:39:15.487Z,16.15
2022-11-26T23:41:44.815Z,17.98
2022-11-26T23:44:14.192Z,17.63
2022-11-26T23:46:44.704Z,16.83
2022-11-26T23:49:14.178Z,16.02
2022-11-26T23:51:43.352Z,16.48
2022-11-26T23:54:12.724Z,15.65
2022-11-26T23:56:44.647Z,16.08
2022-11-26T23:59:14.565Z,16.60
